Αρχική σελίδα
METAR-TAF:

METAR-TAF

Αεροδρόμια :

Stornoway, Σκωτία

γεωγραφικό πλάτος: 58-13N, γεωγραφικό μήκος: 006-19W, υψόμετρο: 9 μ

Παρών καιρός

Η αναφορά έγινε 22 λεπτά πριν, στις 08:20 UTC
Άνεμος 7 kt από Ν/NA
Θερμοκρασία 14°C
Υγρασία 82%
Πίεση 1010 hPa
Ορατότητα 10 χλμ και άνω
Λίγα νέφη σε ύψος 2200 πόδια

METAR: EGPO 220820Z 16007KT 9999 FEW022 14/11 Q1010

Χρόνος: 09:42 (08:42 UTC)

Πρόγνωση Καιρού

Η αναφορά έγινε 45 λεπτά πριν, στις 07:57 UTC
Η πρόγνωση ισχύει από τις 22 στις 09 UTC έως τις 22 στις 18 UTC
Άνεμος 5 kt από Ν
Ορατότητα 10 χλμ και άνω
Λίγα νέφη σε ύψος 1500 πόδια

TAF: EGPO 220757Z 2209/2218 18005KT 9999 FEW015

Μετεωρολογικές αναφορές και προγνώσεις για περισσότερα από 4000 αεροδρόμια (δελτία METAR και TAF).

Οι διαθέσιμοι σταθμοί απεικονίζονται στο χάρτη με κίτρινες και κόκκινες κουκκίδες.

Μετακινήστε το ποντίκι πάνω από τις κουκκίδες για να δείτε το όνομα του σταθμού.

Στη συνέχεια, κάντε κλικ για να δείτε τις μετεωρολογικές αναφορές και τις προγνώσεις καιρού.

Για να αλλάξετε το χάρτη: κάντε κλικ στα πράσινα κουμπιά με τον μαύρο σταυρό για να ζουμάρετε, στο πράσινο κουμπί με την παύλα για να αφαιρέσετε το ζουμ ή στα πράσινα βέλη για να αντιπαραβάλλετε χάρτες.


METAR-TAF: